Seattle, WA (98107)

1:48 AM PDT on September 18, 2014 (GMT -0700)
Ballard Playground | Change Station
CLOSE
Current Station
Personal Weather Station
Location: Seattle, WA
Elevation: 108 ft
Nearby Weather Stations
4.0 Earthquake: Seabeck, Washington (22 hours ago)  

Elev 108 ft 47.67 °N, 122.39 °W | Updated 3 minutes ago

Rain
Rain
59.3 °F
Feels Like 59.3 °F
N
0.0
Wind Variable Wind from WNW
Gusts 0.0 mph

Today
High -- | Low -- °F
--% Chance of Precip.
Yesterday
High -- | Low -- °F
Precip. -- in
6:51 AM 7:15 PM
Waning Crescent, 29% visible
Pressure 29.76 in
Visibility 10.0 miles
Clouds Few 3500 ft
Mostly Cloudy 8000 ft
Overcast 9000 ft
Dew Point 58 °F
Humidity 96%
Rainfall 0.05 in
Snow Depth Not available.
UV 0 out of 12
Pollen 1.70 out of 12
Air Quality Not available.
Flu Activity Not available.
METAR KBFI 180753Z AUTO 00000KT 10SM -RA FEW035 BKN080 OVC090 17/14 A2976 RMK AO2 SLP076 P0000 T01720139 402280167 TSNO

More Conditions Fewer Conditions

Pressure 29.76 in
Visibility 10.0 miles
Clouds Few 3500 ft
Mostly Cloudy 8000 ft
Overcast 9000 ft
Dew Point 58 °F
Humidity 96%
Rainfall 0.05 in
Snow Depth Not available.
UV 0 out of 12
Pollen 1.70 out of 12
Air Quality Not available.
Flu Activity Not available.
METAR KBFI 180753Z AUTO 00000KT 10SM -RA FEW035 BKN080 OVC090 17/14 A2976 RMK AO2 SLP076 P0000 T01720139 402280167 TSNO

More Conditions Fewer Conditions

10-Day Weather Forecast

Almanac

Astronomy

Sep. 18, 2014 Rise Set
Actual Time 6:51 AM PDT 7:15 PM PDT
Civil Twilight 6:20 AM PDT 7:46 PM PDT
Nautical Twilight 5:43 AM PDT 8:22 PM PDT
Astronomical Twilight 5:05 AM PDT 9:00 PM PDT
Moon 1:31 AM PDT 4:25 PM PDT
Length of Visible Light 13h 26m
Length of Day
12h 24m
Tomorrow will be 3m 24s shorter.
Waning Crescent, 29% of the Moon is Illuminated
Today
Waning Crescent
Sep 24
New
Oct 1
First Quarter
Oct 8
Full
Oct 15
Last Quarter

Today's Extremes

State Highs State Lows

Community

WunderPhotos

Upload Photos

1,754,310 photos uploaded!

Nearby

Air Quality

  Air Quality AQ Index Pollutant
Thursday Good
OZONE
Thursday Good
PM2.5
Friday Good
OZONE
Friday Good
PM2.5
Saturday Good
PM2.5
Saturday Good
OZONE
Sunday Good
PM2.5
Sunday Good
OZONE
Monday Good
OZONE
Monday Good
PM2.5

Snow Depth

Station Depth Elevation
Swift Creek 0 in 3770 ft
Sentinel Butte 2 in 4920 ft
Potato Hill 0 in 4500 ft
Sheep Canyon 0 in 4030 ft
Alpine Meadows 0 in 3500 ft

Earthquake Activity

City Distance Mag. Time & Date
Seabeck, Washington 30 miles 4.0 3:06 AM PDT
2014-09-17
Morton, Washington 92 miles 3.0 5:43 AM PDT
2014-09-16
Minimum magnitude displayed is 2.5.

Coastal Water Temperatures

Place Temperature
Port Townsend, WA 52.0 °F
Seattle, WA 55.9 °F
Friday Harbor, WA 53.1 °F
Tacoma, WA 55.9 °F

Nearby Weather Stations